الصفحة الرئيسية
METAR-TAF:

METAR-TAF

مطار :

مطار أنتونيو بي وان بات الدولي

Hagåtña, غوام, الولايات المتحدة

دائرة عرض: 13-29N, خط طول: 144-48E, ارتفاع: 91 متر

مراقبة الطقس الحالي

تاريخ ووقت الإصدار 31 دقيقة قبل الساعة 14:54UTC
ريح 9 عقدة من الشرق/الشمال الشرقي
درجة الحرارة 26°درجة مئوية
الرطوبة 94%
ضغط 1012 hPa
الرؤية: 16.1 كم
سماء صافية

METAR: PGUM 231454Z 07009KT 10SM CLR 26/25 A2989 RMK AO2 SLP113 T02610250 58002 $

زمن: 01:25 (15:25 UTC)

توقعات

تاريخ ووقت الإصدار 4ساعات و 5 دقيقة قبل الساعة 11:20UTC
التوقعات صالحة من23 الساعة 12 UTC إلى 24 الساعة 18 UTC
ريح 11 عقدة من الشرق
الرؤية: 10 كم
غيوم متفرقة على ارتفاع 2300 قدم
زخات في الجوار

TAF: PGUM 231120Z 2312/2418 08011KT P6SM VCSH SCT023

أرصاد الطقس والتوقعات من أكثر من 4000 مطار (تقارير الطقس للمطار METAR والتنبؤ بالطقس بالمطارTAF).

المحطات المتاحة هي النقط الصفراء والحمراء على الخريطة.

حرك المؤشر فوق النقطة لمعرفة اسم المحطة.

ثم انقر لمعرفة أرصاد وتوقعات الطقس.

لتغيير الخارطة: اضغط على الأزرار الخضراء مع رمز الصليب الأسود للتكبير. على الزر الأخضر مع شرطة للتصغير، أو على الأسهم الخضراء للخرائط المجاورة.


METAR-TAF: